sensor_id;sensor_type;location;lat;lon;timestamp;P1;durP1;ratioP1;P2;durP2;ratioP2
29358;SDS011;16347;53.232;6.556;2024-01-07T00:02:01;13.90;;;5.80;;
29358;SDS011;16347;53.232;6.556;2024-01-07T00:04:29;14.02;;;6.60;;
29358;SDS011;16347;53.232;6.556;2024-01-07T00:06:59;11.65;;;6.30;;
29358;SDS011;16347;53.232;6.556;2024-01-07T00:09:27;12.68;;;5.70;;
29358;SDS011;16347;53.232;6.556;2024-01-07T00:11:54;18.27;;;7.18;;
29358;SDS011;16347;53.232;6.556;2024-01-07T00:14:22;13.20;;;6.40;;
29358;SDS011;16347;53.232;6.556;2024-01-07T00:16:50;11.32;;;5.88;;
29358;SDS011;16347;53.232;6.556;2024-01-07T00:19:18;12.65;;;6.45;;
29358;SDS011;16347;53.232;6.556;2024-01-07T00:21:46;12.48;;;6.35;;
29358;SDS011;16347;53.232;6.556;2024-01-07T00:24:15;12.07;;;5.72;;
29358;SDS011;16347;53.232;6.556;2024-01-07T00:26:43;12.88;;;5.65;;
29358;SDS011;16347;53.232;6.556;2024-01-07T00:29:11;12.57;;;5.82;;
29358;SDS011;16347;53.232;6.556;2024-01-07T00:31:39;11.45;;;5.57;;
29358;SDS011;16347;53.232;6.556;2024-01-07T00:34:07;10.23;;;5.22;;
29358;SDS011;16347;53.232;6.556;2024-01-07T00:36:35;12.02;;;6.13;;
29358;SDS011;16347;53.232;6.556;2024-01-07T00:39:03;12.68;;;5.55;;
29358;SDS011;16347;53.232;6.556;2024-01-07T00:41:32;8.15;;;4.90;;
29358;SDS011;16347;53.232;6.556;2024-01-07T00:44:00;9.70;;;4.90;;
29358;SDS011;16347;53.232;6.556;2024-01-07T00:46:28;9.25;;;5.28;;
29358;SDS011;16347;53.232;6.556;2024-01-07T00:48:56;12.55;;;5.00;;
29358;SDS011;16347;53.232;6.556;2024-01-07T00:51:24;12.15;;;5.80;;
29358;SDS011;16347;53.232;6.556;2024-01-07T00:53:52;9.77;;;5.60;;
29358;SDS011;16347;53.232;6.556;2024-01-07T00:56:20;15.57;;;6.03;;
29358;SDS011;16347;53.232;6.556;2024-01-07T00:58:49;13.55;;;5.13;;
29358;SDS011;16347;53.232;6.556;2024-01-07T01:01:17;12.82;;;5.38;;
29358;SDS011;16347;53.232;6.556;2024-01-07T01:03:45;9.65;;;5.07;;
29358;SDS011;16347;53.232;6.556;2024-01-07T01:06:13;10.13;;;5.00;;
29358;SDS011;16347;53.232;6.556;2024-01-07T01:08:41;12.65;;;6.20;;
29358;SDS011;16347;53.232;6.556;2024-01-07T01:11:09;8.65;;;5.25;;
29358;SDS011;16347;53.232;6.556;2024-01-07T01:13:37;8.60;;;4.80;;
29358;SDS011;16347;53.232;6.556;2024-01-07T01:16:07;10.10;;;5.43;;
29358;SDS011;16347;53.232;6.556;2024-01-07T01:18:35;13.52;;;5.57;;
29358;SDS011;16347;53.232;6.556;2024-01-07T01:21:03;10.82;;;4.43;;
29358;SDS011;16347;53.232;6.556;2024-01-07T01:23:31;10.55;;;4.82;;
29358;SDS011;16347;53.232;6.556;2024-01-07T01:25:59;14.52;;;5.22;;
29358;SDS011;16347;53.232;6.556;2024-01-07T01:28:27;10.63;;;5.07;;
29358;SDS011;16347;53.232;6.556;2024-01-07T01:30:55;8.02;;;4.78;;
29358;SDS011;16347;53.232;6.556;2024-01-07T01:33:24;8.93;;;4.72;;
29358;SDS011;16347;53.232;6.556;2024-01-07T01:35:53;16.35;;;5.28;;
29358;SDS011;16347;53.232;6.556;2024-01-07T01:38:21;11.38;;;5.10;;
29358;SDS011;16347;53.232;6.556;2024-01-07T01:40:51;9.90;;;4.68;;
29358;SDS011;16347;53.232;6.556;2024-01-07T01:43:23;10.55;;;5.00;;
29358;SDS011;16347;53.232;6.556;2024-01-07T01:45:51;10.65;;;5.32;;
29358;SDS011;16347;53.232;6.556;2024-01-07T01:48:21;11.82;;;4.80;;
29358;SDS011;16347;53.232;6.556;2024-01-07T01:50:51;9.90;;;5.75;;
29358;SDS011;16347;53.232;6.556;2024-01-07T01:53:21;9.38;;;4.90;;
29358;SDS011;16347;53.232;6.556;2024-01-07T01:55:49;10.90;;;4.88;;
29358;SDS011;16347;53.232;6.556;2024-01-07T01:58:18;7.55;;;4.40;;
29358;SDS011;16347;53.232;6.556;2024-01-07T02:00:46;10.82;;;5.30;;
29358;SDS011;16347;53.232;6.556;2024-01-07T02:03:15;9.65;;;5.00;;
29358;SDS011;16347;53.232;6.556;2024-01-07T02:05:42;17.95;;;7.18;;
29358;SDS011;16347;53.232;6.556;2024-01-07T02:08:12;11.27;;;5.57;;
29358;SDS011;16347;53.232;6.556;2024-01-07T02:10:41;8.98;;;5.05;;
29358;SDS011;16347;53.232;6.556;2024-01-07T02:13:08;12.93;;;4.70;;
29358;SDS011;16347;53.232;6.556;2024-01-07T02:15:36;8.57;;;3.85;;
29358;SDS011;16347;53.232;6.556;2024-01-07T02:18:04;7.68;;;4.25;;
29358;SDS011;16347;53.232;6.556;2024-01-07T02:20:32;9.50;;;4.63;;
29358;SDS011;16347;53.232;6.556;2024-01-07T02:23:03;11.95;;;5.22;;
29358;SDS011;16347;53.232;6.556;2024-01-07T02:25:35;7.90;;;3.90;;
29358;SDS011;16347;53.232;6.556;2024-01-07T02:28:03;10.45;;;4.82;;
29358;SDS011;16347;53.232;6.556;2024-01-07T02:30:32;9.85;;;4.38;;
29358;SDS011;16347;53.232;6.556;2024-01-07T02:33:01;6.13;;;3.83;;
29358;SDS011;16347;53.232;6.556;2024-01-07T02:35:30;7.43;;;4.00;;
29358;SDS011;16347;53.232;6.556;2024-01-07T02:37:58;7.78;;;3.70;;
29358;SDS011;16347;53.232;6.556;2024-01-07T02:40:25;12.88;;;4.88;;
29358;SDS011;16347;53.232;6.556;2024-01-07T02:42:55;12.80;;;4.47;;
29358;SDS011;16347;53.232;6.556;2024-01-07T02:45:23;9.80;;;3.92;;
29358;SDS011;16347;53.232;6.556;2024-01-07T02:47:51;9.00;;;4.05;;
29358;SDS011;16347;53.232;6.556;2024-01-07T02:50:20;6.38;;;3.65;;
29358;SDS011;16347;53.232;6.556;2024-01-07T02:52:48;6.20;;;3.30;;
29358;SDS011;16347;53.232;6.556;2024-01-07T02:55:16;7.20;;;3.50;;
29358;SDS011;16347;53.232;6.556;2024-01-07T02:57:44;7.15;;;3.70;;
29358;SDS011;16347;53.232;6.556;2024-01-07T03:00:14;10.50;;;4.05;;
29358;SDS011;16347;53.232;6.556;2024-01-07T03:02:42;8.40;;;3.58;;
29358;SDS011;16347;53.232;6.556;2024-01-07T03:05:10;6.32;;;3.55;;
29358;SDS011;16347;53.232;6.556;2024-01-07T03:07:38;10.70;;;3.58;;
29358;SDS011;16347;53.232;6.556;2024-01-07T03:10:06;7.18;;;2.97;;
29358;SDS011;16347;53.232;6.556;2024-01-07T03:12:35;10.73;;;3.42;;
29358;SDS011;16347;53.232;6.556;2024-01-07T03:15:03;9.82;;;4.05;;
29358;SDS011;16347;53.232;6.556;2024-01-07T03:17:33;7.05;;;3.45;;
29358;SDS011;16347;53.232;6.556;2024-01-07T03:20:02;5.13;;;3.38;;
29358;SDS011;16347;53.232;6.556;2024-01-07T03:22:30;5.80;;;3.28;;
29358;SDS011;16347;53.232;6.556;2024-01-07T03:24:58;4.13;;;2.50;;
29358;SDS011;16347;53.232;6.556;2024-01-07T03:27:26;8.05;;;2.70;;
29358;SDS011;16347;53.232;6.556;2024-01-07T03:29:54;4.55;;;3.03;;
29358;SDS011;16347;53.232;6.556;2024-01-07T03:32:21;9.23;;;3.05;;
29358;SDS011;16347;53.232;6.556;2024-01-07T03:34:50;8.90;;;2.67;;
29358;SDS011;16347;53.232;6.556;2024-01-07T03:37:19;4.68;;;2.40;;
29358;SDS011;16347;53.232;6.556;2024-01-07T03:39:47;8.20;;;2.90;;
29358;SDS011;16347;53.232;6.556;2024-01-07T03:42:15;6.43;;;3.08;;
29358;SDS011;16347;53.232;6.556;2024-01-07T03:44:43;8.80;;;2.90;;
29358;SDS011;16347;53.232;6.556;2024-01-07T03:47:11;6.53;;;2.88;;
29358;SDS011;16347;53.232;6.556;2024-01-07T03:49:39;8.55;;;2.55;;
29358;SDS011;16347;53.232;6.556;2024-01-07T03:52:08;9.55;;;3.13;;
29358;SDS011;16347;53.232;6.556;2024-01-07T03:54:36;6.05;;;2.58;;
29358;SDS011;16347;53.232;6.556;2024-01-07T03:57:04;5.45;;;2.75;;
29358;SDS011;16347;53.232;6.556;2024-01-07T03:59:32;6.18;;;3.20;;
29358;SDS011;16347;53.232;6.556;2024-01-07T04:02:00;6.10;;;2.63;;
29358;SDS011;16347;53.232;6.556;2024-01-07T04:04:28;7.40;;;2.97;;
29358;SDS011;16347;53.232;6.556;2024-01-07T04:06:56;4.32;;;2.38;;
29358;SDS011;16347;53.232;6.556;2024-01-07T04:09:25;7.57;;;2.28;;
29358;SDS011;16347;53.232;6.556;2024-01-07T04:11:53;8.30;;;2.50;;
29358;SDS011;16347;53.232;6.556;2024-01-07T04:14:21;6.80;;;2.78;;
29358;SDS011;16347;53.232;6.556;2024-01-07T04:16:49;6.13;;;2.63;;
29358;SDS011;16347;53.232;6.556;2024-01-07T04:19:17;5.20;;;2.78;;
29358;SDS011;16347;53.232;6.556;2024-01-07T04:21:45;4.10;;;2.22;;
29358;SDS011;16347;53.232;6.556;2024-01-07T04:24:13;6.30;;;2.90;;
29358;SDS011;16347;53.232;6.556;2024-01-07T04:26:42;4.28;;;2.35;;
29358;SDS011;16347;53.232;6.556;2024-01-07T04:29:10;13.02;;;2.72;;
29358;SDS011;16347;53.232;6.556;2024-01-07T04:31:38;3.78;;;2.13;;
29358;SDS011;16347;53.232;6.556;2024-01-07T04:34:06;9.68;;;2.70;;
29358;SDS011;16347;53.232;6.556;2024-01-07T04:36:34;3.80;;;2.20;;
29358;SDS011;16347;53.232;6.556;2024-01-07T04:39:02;5.32;;;2.20;;
29358;SDS011;16347;53.232;6.556;2024-01-07T04:41:30;4.35;;;2.17;;
29358;SDS011;16347;53.232;6.556;2024-01-07T04:43:59;6.00;;;2.17;;
29358;SDS011;16347;53.232;6.556;2024-01-07T04:46:27;3.55;;;1.92;;
29358;SDS011;16347;53.232;6.556;2024-01-07T04:48:54;3.35;;;1.85;;
29358;SDS011;16347;53.232;6.556;2024-01-07T04:51:22;5.82;;;3.20;;
29358;SDS011;16347;53.232;6.556;2024-01-07T04:53:50;3.80;;;2.08;;
29358;SDS011;16347;53.232;6.556;2024-01-07T04:56:18;3.88;;;1.77;;
29358;SDS011;16347;53.232;6.556;2024-01-07T04:58:46;6.47;;;1.98;;
29358;SDS011;16347;53.232;6.556;2024-01-07T05:01:15;3.15;;;1.92;;
29358;SDS011;16347;53.232;6.556;2024-01-07T05:03:43;4.90;;;2.25;;
29358;SDS011;16347;53.232;6.556;2024-01-07T05:06:11;3.00;;;1.70;;
29358;SDS011;16347;53.232;6.556;2024-01-07T05:08:39;3.40;;;1.58;;
29358;SDS011;16347;53.232;6.556;2024-01-07T05:11:07;3.00;;;1.33;;
29358;SDS011;16347;53.232;6.556;2024-01-07T05:13:35;3.20;;;1.73;;
29358;SDS011;16347;53.232;6.556;2024-01-07T05:16:03;3.72;;;1.75;;
29358;SDS011;16347;53.232;6.556;2024-01-07T05:18:33;5.03;;;1.73;;
29358;SDS011;16347;53.232;6.556;2024-01-07T05:21:01;4.80;;;1.60;;
29358;SDS011;16347;53.232;6.556;2024-01-07T05:23:29;3.35;;;1.67;;
29358;SDS011;16347;53.232;6.556;2024-01-07T05:25:59;6.40;;;1.85;;
29358;SDS011;16347;53.232;6.556;2024-01-07T05:28:28;5.88;;;1.77;;
29358;SDS011;16347;53.232;6.556;2024-01-07T05:30:56;8.70;;;1.70;;
29358;SDS011;16347;53.232;6.556;2024-01-07T05:33:23;4.28;;;1.40;;
29358;SDS011;16347;53.232;6.556;2024-01-07T05:35:53;4.70;;;1.83;;
29358;SDS011;16347;53.232;6.556;2024-01-07T05:38:21;4.72;;;1.40;;
29358;SDS011;16347;53.232;6.556;2024-01-07T05:40:48;4.07;;;2.33;;
29358;SDS011;16347;53.232;6.556;2024-01-07T05:43:16;5.55;;;1.40;;
29358;SDS011;16347;53.232;6.556;2024-01-07T05:45:44;5.55;;;1.70;;
29358;SDS011;16347;53.232;6.556;2024-01-07T05:48:12;4.28;;;1.95;;
29358;SDS011;16347;53.232;6.556;2024-01-07T05:50:40;3.13;;;1.30;;
29358;SDS011;16347;53.232;6.556;2024-01-07T05:53:09;4.15;;;1.60;;
29358;SDS011;16347;53.232;6.556;2024-01-07T05:55:37;4.47;;;1.45;;
29358;SDS011;16347;53.232;6.556;2024-01-07T05:58:05;3.45;;;1.38;;
29358;SDS011;16347;53.232;6.556;2024-01-07T06:00:33;5.68;;;1.80;;
29358;SDS011;16347;53.232;6.556;2024-01-07T06:03:01;5.32;;;1.35;;
29358;SDS011;16347;53.232;6.556;2024-01-07T06:05:29;4.53;;;1.67;;
29358;SDS011;16347;53.232;6.556;2024-01-07T06:07:57;5.53;;;1.80;;
29358;SDS011;16347;53.232;6.556;2024-01-07T06:10:27;3.80;;;1.23;;
29358;SDS011;16347;53.232;6.556;2024-01-07T06:12:55;5.57;;;1.90;;
29358;SDS011;16347;53.232;6.556;2024-01-07T06:15:22;4.47;;;1.75;;
29358;SDS011;16347;53.232;6.556;2024-01-07T06:17:50;4.80;;;1.80;;
29358;SDS011;16347;53.232;6.556;2024-01-07T06:20:18;5.03;;;1.42;;
29358;SDS011;16347;53.232;6.556;2024-01-07T06:22:46;3.63;;;1.20;;
29358;SDS011;16347;53.232;6.556;2024-01-07T06:25:14;5.43;;;1.40;;
29358;SDS011;16347;53.232;6.556;2024-01-07T06:27:43;3.78;;;1.77;;
29358;SDS011;16347;53.232;6.556;2024-01-07T06:30:11;4.10;;;1.85;;
29358;SDS011;16347;53.232;6.556;2024-01-07T06:32:40;5.18;;;1.90;;
29358;SDS011;16347;53.232;6.556;2024-01-07T06:35:08;3.63;;;1.88;;
29358;SDS011;16347;53.232;6.556;2024-01-07T06:37:36;3.85;;;1.23;;
29358;SDS011;16347;53.232;6.556;2024-01-07T06:40:04;3.03;;;1.45;;
29358;SDS011;16347;53.232;6.556;2024-01-07T06:42:32;4.05;;;1.23;;
29358;SDS011;16347;53.232;6.556;2024-01-07T06:45:02;7.38;;;1.58;;
29358;SDS011;16347;53.232;6.556;2024-01-07T06:47:30;2.92;;;1.55;;
29358;SDS011;16347;53.232;6.556;2024-01-07T06:49:58;1.83;;;1.15;;
29358;SDS011;16347;53.232;6.556;2024-01-07T06:52:26;3.28;;;1.23;;
29358;SDS011;16347;53.232;6.556;2024-01-07T06:54:53;9.82;;;1.30;;
29358;SDS011;16347;53.232;6.556;2024-01-07T06:57:22;7.22;;;1.67;;
29358;SDS011;16347;53.232;6.556;2024-01-07T06:59:49;2.85;;;1.17;;
29358;SDS011;16347;53.232;6.556;2024-01-07T07:02:19;4.40;;;1.13;;
29358;SDS011;16347;53.232;6.556;2024-01-07T07:04:48;3.60;;;0.90;;
29358;SDS011;16347;53.232;6.556;2024-01-07T07:07:18;2.63;;;1.05;;
29358;SDS011;16347;53.232;6.556;2024-01-07T07:09:46;3.47;;;1.30;;
29358;SDS011;16347;53.232;6.556;2024-01-07T07:12:14;3.90;;;1.15;;
29358;SDS011;16347;53.232;6.556;2024-01-07T07:14:42;3.75;;;1.13;;
29358;SDS011;16347;53.232;6.556;2024-01-07T07:17:09;3.45;;;1.00;;
29358;SDS011;16347;53.232;6.556;2024-01-07T07:19:38;4.70;;;1.40;;
29358;SDS011;16347;53.232;6.556;2024-01-07T07:22:11;2.30;;;0.88;;
29358;SDS011;16347;53.232;6.556;2024-01-07T07:24:40;5.40;;;1.45;;
29358;SDS011;16347;53.232;6.556;2024-01-07T07:27:08;2.22;;;1.00;;
29358;SDS011;16347;53.232;6.556;2024-01-07T07:29:36;2.17;;;1.10;;
29358;SDS011;16347;53.232;6.556;2024-01-07T07:32:04;2.78;;;1.17;;
29358;SDS011;16347;53.232;6.556;2024-01-07T07:34:33;5.93;;;1.50;;
29358;SDS011;16347;53.232;6.556;2024-01-07T07:37:03;1.20;;;0.98;;
29358;SDS011;16347;53.232;6.556;2024-01-07T07:39:31;1.80;;;1.00;;
29358;SDS011;16347;53.232;6.556;2024-01-07T07:41:59;2.75;;;1.33;;
29358;SDS011;16347;53.232;6.556;2024-01-07T07:44:27;3.17;;;1.80;;
29358;SDS011;16347;53.232;6.556;2024-01-07T07:46:55;2.85;;;1.50;;
29358;SDS011;16347;53.232;6.556;2024-01-07T07:49:23;1.27;;;1.10;;
29358;SDS011;16347;53.232;6.556;2024-01-07T07:51:54;2.78;;;1.35;;
29358;SDS011;16347;53.232;6.556;2024-01-07T07:54:24;4.65;;;1.63;;
29358;SDS011;16347;53.232;6.556;2024-01-07T07:56:52;3.20;;;1.40;;
29358;SDS011;16347;53.232;6.556;2024-01-07T07:59:20;5.88;;;1.67;;
29358;SDS011;16347;53.232;6.556;2024-01-07T08:01:48;5.03;;;1.45;;
29358;SDS011;16347;53.232;6.556;2024-01-07T08:04:16;2.10;;;1.45;;
29358;SDS011;16347;53.232;6.556;2024-01-07T08:06:44;3.17;;;1.50;;
29358;SDS011;16347;53.232;6.556;2024-01-07T08:09:12;5.22;;;1.60;;
29358;SDS011;16347;53.232;6.556;2024-01-07T08:11:41;5.03;;;1.73;;
29358;SDS011;16347;53.232;6.556;2024-01-07T08:14:09;6.78;;;2.00;;
29358;SDS011;16347;53.232;6.556;2024-01-07T08:16:37;2.33;;;1.27;;
29358;SDS011;16347;53.232;6.556;2024-01-07T08:19:05;2.13;;;1.48;;
29358;SDS011;16347;53.232;6.556;2024-01-07T08:21:33;3.88;;;1.80;;
29358;SDS011;16347;53.232;6.556;2024-01-07T08:24:01;2.97;;;1.50;;
29358;SDS011;16347;53.232;6.556;2024-01-07T08:26:30;3.55;;;1.67;;
29358;SDS011;16347;53.232;6.556;2024-01-07T08:28:59;1.88;;;1.30;;
29358;SDS011;16347;53.232;6.556;2024-01-07T08:31:27;6.00;;;1.75;;
29358;SDS011;16347;53.232;6.556;2024-01-07T08:33:55;5.07;;;1.98;;
29358;SDS011;16347;53.232;6.556;2024-01-07T08:36:23;4.28;;;1.75;;
29358;SDS011;16347;53.232;6.556;2024-01-07T08:38:51;6.03;;;1.77;;
29358;SDS011;16347;53.232;6.556;2024-01-07T08:41:19;3.22;;;1.17;;
29358;SDS011;16347;53.232;6.556;2024-01-07T08:43:47;4.65;;;1.42;;
29358;SDS011;16347;53.232;6.556;2024-01-07T08:46:16;2.10;;;1.50;;
29358;SDS011;16347;53.232;6.556;2024-01-07T08:48:45;2.85;;;1.30;;
29358;SDS011;16347;53.232;6.556;2024-01-07T08:51:13;4.57;;;1.27;;
29358;SDS011;16347;53.232;6.556;2024-01-07T08:53:41;3.88;;;1.60;;
29358;SDS011;16347;53.232;6.556;2024-01-07T08:56:09;5.15;;;1.95;;
29358;SDS011;16347;53.232;6.556;2024-01-07T08:58:37;4.47;;;1.55;;
29358;SDS011;16347;53.232;6.556;2024-01-07T09:01:04;4.72;;;1.40;;
29358;SDS011;16347;53.232;6.556;2024-01-07T09:03:34;4.65;;;1.63;;
29358;SDS011;16347;53.232;6.556;2024-01-07T09:06:02;8.55;;;1.35;;
29358;SDS011;16347;53.232;6.556;2024-01-07T09:08:30;2.95;;;1.33;;
29358;SDS011;16347;53.232;6.556;2024-01-07T09:10:58;5.15;;;1.80;;
29358;SDS011;16347;53.232;6.556;2024-01-07T09:13:26;4.20;;;2.00;;
29358;SDS011;16347;53.232;6.556;2024-01-07T09:15:54;5.63;;;1.92;;
29358;SDS011;16347;53.232;6.556;2024-01-07T09:18:22;4.00;;;1.40;;
29358;SDS011;16347;53.232;6.556;2024-01-07T09:20:52;3.33;;;1.65;;
29358;SDS011;16347;53.232;6.556;2024-01-07T09:23:20;4.20;;;1.65;;
29358;SDS011;16347;53.232;6.556;2024-01-07T09:25:47;7.15;;;1.60;;
29358;SDS011;16347;53.232;6.556;2024-01-07T09:28:15;3.67;;;1.80;;
29358;SDS011;16347;53.232;6.556;2024-01-07T09:30:43;3.65;;;1.58;;
29358;SDS011;16347;53.232;6.556;2024-01-07T09:33:11;4.97;;;1.90;;
29358;SDS011;16347;53.232;6.556;2024-01-07T09:35:41;4.05;;;1.45;;
29358;SDS011;16347;53.232;6.556;2024-01-07T09:38:11;5.63;;;1.83;;
29358;SDS011;16347;53.232;6.556;2024-01-07T09:40:40;8.38;;;2.17;;
29358;SDS011;16347;53.232;6.556;2024-01-07T09:43:08;5.78;;;2.13;;
29358;SDS011;16347;53.232;6.556;2024-01-07T09:45:36;6.68;;;2.15;;
29358;SDS011;16347;53.232;6.556;2024-01-07T09:48:06;4.72;;;1.95;;
29358;SDS011;16347;53.232;6.556;2024-01-07T09:50:34;5.50;;;2.20;;
29358;SDS011;16347;53.232;6.556;2024-01-07T09:53:02;9.40;;;2.50;;
29358;SDS011;16347;53.232;6.556;2024-01-07T09:55:33;3.58;;;1.92;;
29358;SDS011;16347;53.232;6.556;2024-01-07T09:58:07;7.43;;;2.13;;
29358;SDS011;16347;53.232;6.556;2024-01-07T10:00:35;6.13;;;2.30;;
29358;SDS011;16347;53.232;6.556;2024-01-07T10:03:04;5.18;;;1.73;;
29358;SDS011;16347;53.232;6.556;2024-01-07T10:05:32;5.72;;;2.17;;
29358;SDS011;16347;53.232;6.556;2024-01-07T10:08:00;7.82;;;2.28;;
29358;SDS011;16347;53.232;6.556;2024-01-07T10:10:28;4.35;;;1.75;;
29358;SDS011;16347;53.232;6.556;2024-01-07T10:12:57;4.05;;;1.80;;
29358;SDS011;16347;53.232;6.556;2024-01-07T10:15:25;4.30;;;1.98;;
29358;SDS011;16347;53.232;6.556;2024-01-07T10:17:54;6.35;;;2.10;;
29358;SDS011;16347;53.232;6.556;2024-01-07T10:20:23;10.18;;;2.97;;
29358;SDS011;16347;53.232;6.556;2024-01-07T10:22:50;7.53;;;2.38;;
29358;SDS011;16347;53.232;6.556;2024-01-07T10:25:19;4.47;;;2.10;;
29358;SDS011;16347;53.232;6.556;2024-01-07T10:27:47;6.40;;;2.33;;
29358;SDS011;16347;53.232;6.556;2024-01-07T10:30:17;4.15;;;1.83;;
29358;SDS011;16347;53.232;6.556;2024-01-07T10:32:45;7.13;;;2.33;;
29358;SDS011;16347;53.232;6.556;2024-01-07T10:35:13;6.38;;;2.55;;
29358;SDS011;16347;53.232;6.556;2024-01-07T10:37:42;6.97;;;2.30;;
29358;SDS011;16347;53.232;6.556;2024-01-07T10:40:11;5.35;;;2.05;;
29358;SDS011;16347;53.232;6.556;2024-01-07T10:42:41;2.63;;;1.63;;
29358;SDS011;16347;53.232;6.556;2024-01-07T10:45:11;3.92;;;1.70;;
29358;SDS011;16347;53.232;6.556;2024-01-07T10:47:42;5.18;;;1.98;;
29358;SDS011;16347;53.232;6.556;2024-01-07T10:50:16;4.43;;;1.67;;
29358;SDS011;16347;53.232;6.556;2024-01-07T10:52:48;4.55;;;1.83;;
29358;SDS011;16347;53.232;6.556;2024-01-07T10:55:17;9.52;;;2.47;;
29358;SDS011;16347;53.232;6.556;2024-01-07T10:57:48;6.70;;;1.83;;
29358;SDS011;16347;53.232;6.556;2024-01-07T11:00:17;4.80;;;2.13;;
29358;SDS011;16347;53.232;6.556;2024-01-07T11:02:52;6.07;;;1.77;;
29358;SDS011;16347;53.232;6.556;2024-01-07T11:05:30;7.03;;;2.28;;
29358;SDS011;16347;53.232;6.556;2024-01-07T11:08:08;3.17;;;2.00;;
29358;SDS011;16347;53.232;6.556;2024-01-07T11:10:44;5.25;;;2.22;;
29358;SDS011;16347;53.232;6.556;2024-01-07T11:13:31;4.78;;;2.33;;
29358;SDS011;16347;53.232;6.556;2024-01-07T11:16:01;3.70;;;1.98;;
29358;SDS011;16347;53.232;6.556;2024-01-07T11:18:31;6.35;;;2.60;;
29358;SDS011;16347;53.232;6.556;2024-01-07T11:21:01;5.55;;;2.28;;
29358;SDS011;16347;53.232;6.556;2024-01-07T11:23:30;8.27;;;2.15;;
29358;SDS011;16347;53.232;6.556;2024-01-07T11:25:59;11.10;;;2.72;;
29358;SDS011;16347;53.232;6.556;2024-01-07T11:28:44;6.95;;;3.10;;
29358;SDS011;16347;53.232;6.556;2024-01-07T11:31:12;14.55;;;3.47;;
29358;SDS011;16347;53.232;6.556;2024-01-07T11:33:43;4.85;;;2.50;;
29358;SDS011;16347;53.232;6.556;2024-01-07T11:36:13;5.97;;;2.95;;
29358;SDS011;16347;53.232;6.556;2024-01-07T11:38:41;5.88;;;2.75;;
29358;SDS011;16347;53.232;6.556;2024-01-07T11:41:11;5.45;;;2.50;;
29358;SDS011;16347;53.232;6.556;2024-01-07T11:43:53;7.82;;;3.15;;
29358;SDS011;16347;53.232;6.556;2024-01-07T11:46:22;4.95;;;2.65;;
29358;SDS011;16347;53.232;6.556;2024-01-07T11:48:54;5.75;;;2.83;;
29358;SDS011;16347;53.232;6.556;2024-01-07T11:51:25;9.90;;;3.65;;
29358;SDS011;16347;53.232;6.556;2024-01-07T11:53:53;9.75;;;3.22;;
29358;SDS011;16347;53.232;6.556;2024-01-07T11:56:22;9.52;;;3.35;;
29358;SDS011;16347;53.232;6.556;2024-01-07T11:58:50;9.80;;;3.65;;
29358;SDS011;16347;53.232;6.556;2024-01-07T12:01:18;8.75;;;3.10;;
29358;SDS011;16347;53.232;6.556;2024-01-07T12:03:46;12.07;;;3.47;;
29358;SDS011;16347;53.232;6.556;2024-01-07T12:06:15;8.80;;;3.60;;
29358;SDS011;16347;53.232;6.556;2024-01-07T12:08:43;8.45;;;3.42;;
29358;SDS011;16347;53.232;6.556;2024-01-07T12:11:12;7.50;;;3.20;;
29358;SDS011;16347;53.232;6.556;2024-01-07T12:13:41;10.00;;;3.30;;
29358;SDS011;16347;53.232;6.556;2024-01-07T12:16:09;8.45;;;3.15;;
29358;SDS011;16347;53.232;6.556;2024-01-07T12:18:38;8.48;;;3.38;;
29358;SDS011;16347;53.232;6.556;2024-01-07T12:21:07;11.20;;;3.80;;
29358;SDS011;16347;53.232;6.556;2024-01-07T12:23:36;10.27;;;3.10;;
29358;SDS011;16347;53.232;6.556;2024-01-07T12:26:09;11.68;;;3.22;;
29358;SDS011;16347;53.232;6.556;2024-01-07T12:28:38;6.47;;;2.72;;
29358;SDS011;16347;53.232;6.556;2024-01-07T12:31:06;7.85;;;2.97;;
29358;SDS011;16347;53.232;6.556;2024-01-07T12:33:36;7.65;;;2.63;;
29358;SDS011;16347;53.232;6.556;2024-01-07T12:36:06;8.82;;;3.35;;
29358;SDS011;16347;53.232;6.556;2024-01-07T12:38:37;9.48;;;3.47;;
29358;SDS011;16347;53.232;6.556;2024-01-07T12:41:05;9.02;;;3.33;;
29358;SDS011;16347;53.232;6.556;2024-01-07T12:43:33;7.32;;;2.97;;
29358;SDS011;16347;53.232;6.556;2024-01-07T12:46:01;10.45;;;3.03;;
29358;SDS011;16347;53.232;6.556;2024-01-07T12:48:31;8.75;;;3.08;;
29358;SDS011;16347;53.232;6.556;2024-01-07T12:51:00;12.05;;;2.90;;
29358;SDS011;16347;53.232;6.556;2024-01-07T12:53:28;12.68;;;3.13;;
29358;SDS011;16347;53.232;6.556;2024-01-07T12:55:58;6.45;;;2.85;;
29358;SDS011;16347;53.232;6.556;2024-01-07T12:58:25;6.13;;;2.97;;
29358;SDS011;16347;53.232;6.556;2024-01-07T13:00:53;8.93;;;2.90;;
29358;SDS011;16347;53.232;6.556;2024-01-07T13:03:21;7.32;;;3.10;;
29358;SDS011;16347;53.232;6.556;2024-01-07T13:05:51;11.80;;;3.00;;
29358;SDS011;16347;53.232;6.556;2024-01-07T13:08:19;11.13;;;3.30;;
29358;SDS011;16347;53.232;6.556;2024-01-07T13:10:48;8.40;;;3.17;;
29358;SDS011;16347;53.232;6.556;2024-01-07T13:13:18;9.68;;;2.90;;
29358;SDS011;16347;53.232;6.556;2024-01-07T13:15:46;10.13;;;3.13;;
29358;SDS011;16347;53.232;6.556;2024-01-07T13:18:14;5.10;;;2.90;;
29358;SDS011;16347;53.232;6.556;2024-01-07T13:20:42;7.68;;;2.53;;
29358;SDS011;16347;53.232;6.556;2024-01-07T13:23:10;8.10;;;2.63;;
29358;SDS011;16347;53.232;6.556;2024-01-07T13:25:38;7.57;;;3.20;;
29358;SDS011;16347;53.232;6.556;2024-01-07T13:28:06;7.15;;;2.72;;
29358;SDS011;16347;53.232;6.556;2024-01-07T13:30:39;5.78;;;2.63;;
29358;SDS011;16347;53.232;6.556;2024-01-07T13:33:08;13.52;;;3.08;;
29358;SDS011;16347;53.232;6.556;2024-01-07T13:35:36;9.77;;;3.13;;
29358;SDS011;16347;53.232;6.556;2024-01-07T13:38:04;4.38;;;2.40;;
29358;SDS011;16347;53.232;6.556;2024-01-07T13:40:32;7.90;;;3.20;;
29358;SDS011;16347;53.232;6.556;2024-01-07T13:43:00;6.45;;;2.90;;
29358;SDS011;16347;53.232;6.556;2024-01-07T13:45:29;9.75;;;2.83;;
29358;SDS011;16347;53.232;6.556;2024-01-07T13:47:58;9.60;;;3.15;;
29358;SDS011;16347;53.232;6.556;2024-01-07T13:50:26;5.72;;;2.78;;
29358;SDS011;16347;53.232;6.556;2024-01-07T13:52:54;8.48;;;2.88;;
29358;SDS011;16347;53.232;6.556;2024-01-07T13:55:22;10.02;;;3.30;;
29358;SDS011;16347;53.232;6.556;2024-01-07T13:57:50;9.18;;;3.65;;
29358;SDS011;16347;53.232;6.556;2024-01-07T14:00:18;7.80;;;3.75;;
29358;SDS011;16347;53.232;6.556;2024-01-07T14:02:46;9.65;;;2.85;;
29358;SDS011;16347;53.232;6.556;2024-01-07T14:05:17;6.25;;;2.95;;
29358;SDS011;16347;53.232;6.556;2024-01-07T14:07:46;10.00;;;3.08;;
29358;SDS011;16347;53.232;6.556;2024-01-07T14:10:14;12.27;;;3.22;;
29358;SDS011;16347;53.232;6.556;2024-01-07T14:12:45;5.50;;;3.20;;
29358;SDS011;16347;53.232;6.556;2024-01-07T14:15:13;8.57;;;3.67;;
29358;SDS011;16347;53.232;6.556;2024-01-07T14:17:43;9.15;;;2.95;;
29358;SDS011;16347;53.232;6.556;2024-01-07T14:20:11;5.45;;;2.97;;
29358;SDS011;16347;53.232;6.556;2024-01-07T14:22:41;4.93;;;2.92;;
29358;SDS011;16347;53.232;6.556;2024-01-07T14:25:09;14.23;;;3.20;;
29358;SDS011;16347;53.232;6.556;2024-01-07T14:27:37;8.25;;;2.90;;
29358;SDS011;16347;53.232;6.556;2024-01-07T14:30:05;7.68;;;3.13;;
29358;SDS011;16347;53.232;6.556;2024-01-07T14:32:33;5.28;;;2.80;;
29358;SDS011;16347;53.232;6.556;2024-01-07T14:35:03;9.48;;;2.83;;
29358;SDS011;16347;53.232;6.556;2024-01-07T14:37:31;8.60;;;2.92;;
29358;SDS011;16347;53.232;6.556;2024-01-07T14:40:00;7.88;;;3.05;;
29358;SDS011;16347;53.232;6.556;2024-01-07T14:42:30;10.50;;;2.92;;
29358;SDS011;16347;53.232;6.556;2024-01-07T14:44:58;6.20;;;2.67;;
29358;SDS011;16347;53.232;6.556;2024-01-07T14:47:26;12.13;;;3.22;;
29358;SDS011;16347;53.232;6.556;2024-01-07T14:49:54;13.38;;;3.20;;
29358;SDS011;16347;53.232;6.556;2024-01-07T14:52:23;5.03;;;2.95;;
29358;SDS011;16347;53.232;6.556;2024-01-07T14:54:51;6.57;;;3.28;;